Time;durP1;ratioP1;P1;durP2;ratioP2;P2;SDS_P1;SDS_P2;PMS_P1;PMS_P2;Temp;Humidity;BMP_temperature;BMP_pressure;BME280_temperature;BME280_humidity;BME280_pressure;Samples;Min_cycle;Max_cycle;Signal;HPM_P1;HPM_P2
2022/12/01 00:00:07;;;;;;;36.17;24.58;;;7.00;71.20;;;;;;5075135;28;20051;-77
2022/12/01 00:02:52;;;;;;;35.25;25.25;;;7.00;71.20;;;;;;5085914;28;20058;-77
2022/12/01 00:05:36;;;;;;;37.08;24.33;;;7.00;71.20;;;;;;5085601;28;20552;-77
2022/12/01 00:08:21;;;;;;;36.55;25.45;;;7.00;71.20;;;;;;5086428;28;20071;-77
2022/12/01 00:11:13;;;;;;;35.72;24.52;;;7.00;71.30;;;;;;5085249;28;20403;-76
2022/12/01 00:13:57;;;;;;;35.25;24.30;;;6.90;71.10;;;;;;5081795;28;20478;-78
2022/12/01 00:16:43;;;;;;;35.67;25.17;;;7.00;71.30;;;;;;5077212;28;20112;-77
2022/12/01 00:19:27;;;;;;;31.73;23.65;;;7.00;71.30;;;;;;5084966;28;20075;-78
2022/12/01 00:22:12;;;;;;;37.05;25.00;;;7.00;71.40;;;;;;5084498;28;20062;-78
2022/12/01 00:24:56;;;;;;;32.83;22.80;;;6.90;71.30;;;;;;5084637;28;20038;-78
2022/12/01 00:27:41;;;;;;;30.85;22.95;;;6.90;71.30;;;;;;5072447;28;20047;-79
2022/12/01 00:30:25;;;;;;;29.13;22.77;;;6.90;71.30;;;;;;5082708;28;20047;-78
2022/12/01 00:33:10;;;;;;;32.72;24.25;;;6.90;71.30;;;;;;5084965;28;20101;-78
2022/12/01 00:35:59;;;;;;;29.73;22.70;;;6.90;71.30;;;;;;5083477;28;20042;-78
2022/12/01 00:38:43;;;;;;;27.75;22.00;;;6.90;71.30;;;;;;5088210;28;20051;-78
2022/12/01 00:41:27;;;;;;;26.77;19.75;;;6.90;71.30;;;;;;5079081;28;20100;-78
2022/12/01 00:44:12;;;;;;;27.58;21.80;;;6.90;71.30;;;;;;5085924;28;20039;-78
2022/12/01 00:46:57;;;;;;;26.50;20.85;;;6.90;71.30;;;;;;5081938;28;20404;-78
2022/12/01 00:49:44;;;;;;;28.25;22.17;;;6.90;71.30;;;;;;5083414;28;20067;-78
2022/12/01 00:52:28;;;;;;;24.45;20.48;;;6.80;71.20;;;;;;5084457;28;20051;-79
2022/12/01 00:55:13;;;;;;;24.60;20.45;;;6.80;71.20;;;;;;5066916;28;20043;-78
2022/12/01 00:57:57;;;;;;;23.70;20.30;;;6.80;71.20;;;;;;5082434;28;20070;-79
2022/12/01 01:00:42;;;;;;;22.02;17.77;;;6.80;71.20;;;;;;5083407;28;20124;-80
2022/12/01 01:03:28;;;;;;;22.85;18.90;;;6.80;71.20;;;;;;5085519;28;20051;-77
2022/12/01 01:06:13;;;;;;;22.02;17.67;;;6.80;71.20;;;;;;5071196;28;20101;-78
2022/12/01 01:08:57;;;;;;;20.17;17.02;;;6.80;71.20;;;;;;5083635;28;20051;-78
2022/12/01 01:11:42;;;;;;;21.67;17.70;;;6.70;71.60;;;;;;5075685;28;20121;-78
2022/12/01 01:14:27;;;;;;;19.15;17.08;;;6.70;71.10;;;;;;5083739;28;20399;-78
2022/12/01 01:17:11;;;;;;;19.58;16.60;;;6.70;71.10;;;;;;5073227;28;20043;-78
2022/12/01 01:19:56;;;;;;;21.35;16.77;;;6.70;71.10;;;;;;5084576;28;20205;-78
2022/12/01 01:22:41;;;;;;;20.02;16.50;;;6.70;71.20;;;;;;5081389;28;20477;-78
2022/12/01 01:25:25;;;;;;;19.33;16.08;;;6.70;71.20;;;;;;5083994;28;20043;-78
2022/12/01 01:28:10;;;;;;;18.95;15.68;;;6.70;71.20;;;;;;5077806;28;20120;-78
2022/12/01 01:30:54;;;;;;;17.17;15.20;;;6.60;71.00;;;;;;5077216;28;20497;-78
2022/12/01 01:33:39;;;;;;;16.33;14.48;;;6.60;71.00;;;;;;5084357;28;20075;-78
2022/12/01 01:36:24;;;;;;;17.00;15.10;;;6.60;71.00;;;;;;5083732;28;20112;-78
2022/12/01 01:39:08;;;;;;;17.80;14.30;;;6.60;71.00;;;;;;5077699;28;20403;-77
2022/12/01 01:41:53;;;;;;;17.42;15.38;;;6.60;71.00;;;;;;5066241;28;20059;-78
2022/12/01 01:44:49;;;;;;;16.23;14.25;;;6.60;71.00;;;;;;5082521;28;20117;-78
2022/12/01 01:47:36;;;;;;;16.00;14.13;;;6.60;71.00;;;;;;5067876;28;20083;-78
2022/12/01 01:50:24;;;;;;;14.80;13.27;;;6.60;71.00;;;;;;5077756;28;20395;-78
2022/12/01 01:53:11;;;;;;;16.13;14.40;;;6.50;70.80;;;;;;5083800;28;20118;-78
2022/12/01 01:55:56;;;;;;;14.27;12.75;;;6.50;70.80;;;;;;5071510;28;20081;-78
2022/12/01 01:58:41;;;;;;;15.35;13.75;;;6.50;70.80;;;;;;5090714;28;20040;-79
2022/12/01 02:01:26;;;;;;;14.32;12.82;;;6.50;70.80;;;;;;5082981;28;20047;-79
2022/12/01 02:04:13;;;;;;;15.05;13.07;;;6.40;70.60;;;;;;5082545;28;20124;-77
2022/12/01 02:06:57;;;;;;;15.93;13.23;;;6.40;70.60;;;;;;5079111;28;20403;-76
2022/12/01 02:09:42;;;;;;;15.60;12.60;;;6.40;70.70;;;;;;5079770;28;20407;-78
2022/12/01 02:13:02;;;;;;;14.98;12.70;;;6.30;70.50;;;;;;5082454;28;20109;-76
2022/12/01 02:16:13;;;;;;;14.80;12.48;;;6.30;70.60;;;;;;5081493;28;20529;-77
2022/12/01 02:19:27;;;;;;;14.32;12.48;;;6.30;70.60;;;;;;5050175;28;20100;-78
2022/12/01 02:22:18;;;;;;;15.32;12.68;;;6.30;70.60;;;;;;5079563;28;20109;-77
2022/12/01 02:25:35;;;;;;;16.20;13.18;;;6.30;70.50;;;;;;5082399;28;20437;-78
2022/12/01 02:28:34;;;;;;;15.73;13.32;;;6.30;70.50;;;;;;5042901;28;20142;-79
2022/12/01 02:31:31;;;;;;;12.77;11.18;;;6.30;70.50;;;;;;5083460;28;20537;-80
2022/12/01 02:34:25;;;;;;;13.93;12.20;;;6.30;70.50;;;;;;5077358;28;20177;-78
2022/12/01 02:37:21;;;;;;;14.30;11.95;;;6.30;70.50;;;;;;5069065;28;20073;-79
2022/12/01 02:40:17;;;;;;;16.10;12.73;;;6.30;70.50;;;;;;5079181;28;20094;-79
2022/12/01 02:43:05;;;;;;;13.23;11.93;;;6.30;70.50;;;;;;5063044;28;20039;-79
2022/12/01 02:46:08;;;;;;;14.07;11.13;;;6.30;70.40;;;;;;5082115;28;20197;-79
2022/12/01 02:48:57;;;;;;;12.93;10.75;;;6.30;70.40;;;;;;5070275;28;20419;-78
2022/12/01 02:51:43;;;;;;;13.82;11.63;;;6.30;70.40;;;;;;5084156;28;20063;-79
2022/12/01 02:54:30;;;;;;;14.50;11.88;;;6.30;70.90;;;;;;5087682;28;20043;-78
2022/12/01 02:57:15;;;;;;;14.35;11.52;;;6.30;70.40;;;;;;5080174;28;20051;-78
2022/12/01 03:00:00;;;;;;;14.10;11.68;;;6.30;70.40;;;;;;5077699;28;20081;-78
2022/12/01 03:03:04;;;;;;;15.52;12.43;;;6.30;70.40;;;;;;5091435;28;20658;-78
2022/12/01 03:06:07;;;;;;;14.77;11.98;;;6.20;70.30;;;;;;5089273;28;20085;-78
2022/12/01 03:09:19;;;;;;;18.33;12.93;;;6.30;70.40;;;;;;5089261;28;20072;-78
2022/12/01 03:12:03;;;;;;;16.00;12.27;;;6.30;70.50;;;;;;5074470;28;20059;-78
2022/12/01 03:15:06;;;;;;;15.60;11.57;;;6.30;70.40;;;;;;5078969;28;20085;-78
2022/12/01 03:18:12;;;;;;;16.67;12.35;;;6.30;70.40;;;;;;5078366;28;20050;-78
2022/12/01 03:21:24;;;;;;;16.33;12.15;;;6.20;70.20;;;;;;5086781;28;20527;-78
2022/12/01 03:24:18;;;;;;;17.48;12.65;;;6.20;70.20;;;;;;5091367;28;20070;-78
2022/12/01 03:27:04;;;;;;;20.02;13.30;;;6.30;70.30;;;;;;5087697;28;20130;-78
2022/12/01 03:29:52;;;;;;;16.35;12.55;;;6.30;70.30;;;;;;5079598;28;20043;-78
2022/12/01 03:32:47;;;;;;;18.17;12.82;;;6.30;70.30;;;;;;5077121;28;20098;-78
2022/12/01 03:35:56;;;;;;;18.33;12.30;;;6.30;70.30;;;;;;5090720;28;20089;-78
2022/12/01 03:38:45;;;;;;;19.23;13.43;;;6.30;70.30;;;;;;5087829;28;20236;-78
2022/12/01 03:41:38;;;;;;;19.02;13.57;;;6.30;70.20;;;;;;5091241;28;20047;-78
2022/12/01 03:44:30;;;;;;;17.98;11.95;;;6.30;70.20;;;;;;5090197;28;20139;-77
2022/12/01 03:47:19;;;;;;;18.15;13.68;;;6.30;70.20;;;;;;5077796;28;20089;-77
2022/12/01 03:50:06;;;;;;;18.70;11.93;;;6.30;70.20;;;;;;5090409;28;20077;-77
2022/12/01 03:53:18;;;;;;;18.70;12.60;;;6.30;70.20;;;;;;5085138;28;20329;-78
2022/12/01 03:56:06;;;;;;;16.48;11.75;;;6.30;70.20;;;;;;5088849;28;20456;-77
2022/12/01 03:58:54;;;;;;;17.23;12.52;;;6.30;70.20;;;;;;5082900;28;20497;-78
2022/12/01 04:01:39;;;;;;;17.42;12.68;;;6.30;70.20;;;;;;5090063;28;20077;-77
2022/12/01 04:04:23;;;;;;;16.65;12.68;;;6.30;70.20;;;;;;5089399;28;20518;-78
2022/12/01 04:07:12;;;;;;;17.77;11.60;;;6.30;70.20;;;;;;5079042;28;20075;-78
2022/12/01 04:09:56;;;;;;;15.45;12.00;;;6.30;70.20;;;;;;5085777;28;20035;-78
2022/12/01 04:12:41;;;;;;;16.60;11.93;;;6.30;70.20;;;;;;5087973;28;20043;-77
2022/12/01 04:15:26;;;;;;;17.80;12.35;;;6.30;70.20;;;;;;5090234;28;20046;-77
2022/12/01 04:18:11;;;;;;;16.42;11.50;;;6.30;70.10;;;;;;5079909;28;20055;-77
2022/12/01 04:20:55;;;;;;;17.20;12.20;;;6.30;70.10;;;;;;5078509;28;20099;-77
2022/12/01 04:24:01;;;;;;;20.40;12.65;;;6.30;70.10;;;;;;5089444;28;20084;-77
2022/12/01 04:26:46;;;;;;;17.27;12.60;;;6.30;70.10;;;;;;5088665;28;20070;-77
2022/12/01 04:29:30;;;;;;;18.85;12.38;;;6.30;70.10;;;;;;5081478;28;20048;-77
2022/12/01 04:32:15;;;;;;;17.48;11.52;;;6.30;70.00;;;;;;5089101;28;20042;-77
2022/12/01 04:34:59;;;;;;;18.27;12.68;;;6.30;70.00;;;;;;5083550;28;20343;-77
2022/12/01 04:37:44;;;;;;;17.45;11.82;;;6.30;70.00;;;;;;5088310;28;20038;-77
2022/12/01 04:40:29;;;;;;;16.25;11.88;;;6.40;70.10;;;;;;5076323;28;20112;-76
2022/12/01 04:43:13;;;;;;;18.33;11.48;;;6.40;70.10;;;;;;5088321;28;20043;-78
2022/12/01 04:45:58;;;;;;;18.42;12.48;;;6.40;70.10;;;;;;5075901;28;20133;-78
2022/12/01 04:48:43;;;;;;;18.70;12.60;;;6.40;70.10;;;;;;5076850;28;20094;-78
2022/12/01 04:51:27;;;;;;;18.67;12.70;;;6.30;69.90;;;;;;5087232;28;20093;-78
2022/12/01 04:54:12;;;;;;;16.73;11.77;;;6.40;70.10;;;;;;5089611;28;20035;-79
2022/12/01 04:56:56;;;;;;;15.15;11.18;;;6.40;70.10;;;;;;5087575;28;20059;-78
2022/12/01 04:59:41;;;;;;;16.17;11.65;;;6.40;70.10;;;;;;5089019;28;20035;-78
2022/12/01 05:02:25;;;;;;;18.23;12.60;;;6.30;69.90;;;;;;5088852;28;20035;-77
2022/12/01 05:05:10;;;;;;;17.92;12.07;;;6.30;69.90;;;;;;5078961;28;20058;-77
2022/12/01 05:07:56;;;;;;;17.63;12.85;;;6.30;69.90;;;;;;5086104;28;20447;-77
2022/12/01 05:10:41;;;;;;;18.27;12.40;;;6.30;70.00;;;;;;5083136;28;20240;-76
2022/12/01 05:13:26;;;;;;;19.30;13.15;;;6.30;69.90;;;;;;5088753;28;20108;-77
2022/12/01 05:16:18;;;;;;;16.88;11.70;;;6.40;70.10;;;;;;5067998;28;20096;-77
2022/12/01 05:22:08;;;;;;;17.00;12.07;;;6.30;70.40;;;;;;5086995;28;20164;-77
2022/12/01 05:24:52;;;;;;;16.70;11.88;;;6.30;69.90;;;;;;5089157;28;20047;-76
2022/12/01 05:27:37;;;;;;;19.17;12.75;;;6.30;69.90;;;;;;5086466;28;20047;-77
2022/12/01 05:30:21;;;;;;;17.08;11.32;;;6.30;69.90;;;;;;5087290;28;20543;-77
2022/12/01 05:33:06;;;;;;;17.98;12.35;;;6.30;69.90;;;;;;5088829;28;20058;-77
2022/12/01 05:35:51;;;;;;;16.08;11.63;;;6.40;70.00;;;;;;5088008;28;20121;-77
2022/12/01 05:38:36;;;;;;;17.58;11.48;;;6.30;69.80;;;;;;5084436;28;20113;-78
2022/12/01 05:41:20;;;;;;;18.25;11.30;;;6.30;69.80;;;;;;5084541;28;20286;-77
2022/12/01 05:44:05;;;;;;;16.70;11.55;;;6.40;70.00;;;;;;5080408;28;20069;-78
2022/12/01 05:46:50;;;;;;;17.90;11.90;;;6.40;70.00;;;;;;5091271;28;20560;-77
2022/12/01 05:49:34;;;;;;;16.75;10.55;;;6.30;69.70;;;;;;5089655;28;20111;-77
2022/12/01 05:52:19;;;;;;;16.35;10.98;;;6.40;70.00;;;;;;5089838;28;20047;-77
2022/12/01 05:55:04;;;;;;;19.33;12.90;;;6.40;69.90;;;;;;5090992;28;20092;-77
2022/12/01 05:57:49;;;;;;;16.83;11.50;;;6.40;69.90;;;;;;5092242;28;20046;-76
2022/12/01 06:00:34;;;;;;;19.75;12.95;;;6.40;69.90;;;;;;5085526;28;20074;-77
2022/12/01 06:03:18;;;;;;;16.73;11.02;;;6.40;69.90;;;;;;5086600;28;20071;-77
2022/12/01 06:06:03;;;;;;;17.75;11.38;;;6.40;69.90;;;;;;5084454;28;20057;-77
2022/12/01 06:08:48;;;;;;;16.52;11.35;;;6.40;69.90;;;;;;5078325;28;20046;-76
2022/12/01 06:11:33;;;;;;;16.80;11.50;;;6.40;69.90;;;;;;5085774;28;20054;-76
2022/12/01 06:14:17;;;;;;;16.08;10.98;;;6.40;69.80;;;;;;5083417;28;20170;-76
2022/12/01 06:17:02;;;;;;;17.50;11.68;;;6.40;69.80;;;;;;5082194;28;20074;-78
2022/12/01 06:19:46;;;;;;;16.15;9.93;;;6.40;69.80;;;;;;5081748;28;20490;-75
2022/12/01 06:22:31;;;;;;;17.63;10.05;;;6.40;69.80;;;;;;5079201;28;20506;-77
2022/12/01 06:25:16;;;;;;;15.30;9.88;;;6.40;69.80;;;;;;5084705;28;20145;-78
2022/12/01 06:28:01;;;;;;;14.65;9.95;;;6.40;69.80;;;;;;5082275;28;20039;-78
2022/12/01 06:30:45;;;;;;;15.52;10.25;;;6.40;70.30;;;;;;5069778;28;20047;-79
2022/12/01 06:33:30;;;;;;;16.60;10.70;;;6.40;69.80;;;;;;5081782;28;20054;-79
2022/12/01 06:36:15;;;;;;;16.42;10.63;;;6.50;70.00;;;;;;5072662;28;20047;-80
2022/12/01 06:38:59;;;;;;;17.98;11.05;;;6.50;70.00;;;;;;5089416;28;20057;-81
2022/12/01 06:41:44;;;;;;;16.95;11.48;;;6.50;70.00;;;;;;5088973;28;20124;-82
2022/12/01 06:44:29;;;;;;;18.98;12.45;;;6.50;70.00;;;;;;5084746;28;20046;-83
2022/12/01 06:47:14;;;;;;;15.75;10.40;;;6.50;70.00;;;;;;5083673;28;20054;-81
2022/12/01 06:49:59;;;;;;;16.45;9.65;;;6.50;69.90;;;;;;5087913;28;20089;-80
2022/12/01 06:52:43;;;;;;;18.70;11.02;;;6.50;69.90;;;;;;5085241;28;20497;-77
2022/12/01 06:55:28;;;;;;;15.60;10.93;;;6.50;69.80;;;;;;5087291;28;20510;-79
2022/12/01 06:58:12;;;;;;;16.55;10.57;;;6.50;69.80;;;;;;5085577;28;20046;-79
2022/12/01 07:00:57;;;;;;;16.58;10.65;;;6.50;70.30;;;;;;5086858;28;20144;-78
2022/12/01 07:03:45;;;;;;;15.73;10.40;;;6.50;69.80;;;;;;5086807;28;20061;-78
2022/12/01 07:06:30;;;;;;;17.30;10.57;;;6.50;70.30;;;;;;5064477;28;20043;-77
2022/12/01 07:09:15;;;;;;;15.70;10.60;;;6.50;69.80;;;;;;5083855;28;20123;-76
2022/12/01 07:11:59;;;;;;;16.52;10.05;;;6.50;69.80;;;;;;5089537;28;20059;-77
2022/12/01 07:14:44;;;;;;;15.00;10.40;;;6.50;69.70;;;;;;5087518;28;20051;-81
2022/12/01 07:17:29;;;;;;;15.52;9.07;;;6.50;69.70;;;;;;5082400;28;20580;-83
2022/12/01 07:20:13;;;;;;;15.23;9.55;;;6.50;69.70;;;;;;5071206;28;20081;-83
2022/12/01 07:22:57;;;;;;;15.77;9.38;;;6.50;69.70;;;;;;5084529;28;20154;-87
2022/12/01 07:25:41;;;;;;;14.18;9.00;;;6.50;69.70;;;;;;5088295;28;20296;-86
2022/12/01 07:28:27;;;;;;;15.07;9.50;;;6.50;69.70;;;;;;5086717;28;20058;-84
2022/12/01 07:31:14;;;;;;;15.00;9.40;;;6.50;69.70;;;;;;5072469;28;20085;-82
2022/12/01 07:33:58;;;;;;;12.23;8.23;;;6.50;69.70;;;;;;5086738;28;20047;-82
2022/12/01 07:36:43;;;;;;;13.60;9.55;;;6.50;69.70;;;;;;5083194;28;20093;-78
2022/12/01 07:39:28;;;;;;;16.15;10.15;;;6.50;69.70;;;;;;5084735;28;20611;-80
2022/12/01 07:42:12;;;;;;;14.85;9.32;;;6.50;69.70;;;;;;5080454;28;20039;-77
2022/12/01 07:44:57;;;;;;;11.35;8.02;;;6.50;69.60;;;;;;5084007;28;20054;-81
2022/12/01 07:47:43;;;;;;;12.25;8.35;;;6.50;69.60;;;;;;5072983;28;20091;-80
2022/12/01 07:50:27;;;;;;;12.98;7.97;;;6.50;69.60;;;;;;5083250;28;20521;-78
2022/12/01 07:53:12;;;;;;;14.55;9.15;;;6.50;69.60;;;;;;5068610;28;20506;-77
2022/12/01 07:55:58;;;;;;;13.15;8.48;;;6.50;69.60;;;;;;5086724;28;20031;-77
2022/12/01 07:58:42;;;;;;;13.40;8.70;;;6.50;69.60;;;;;;5083314;28;20078;-77
2022/12/01 08:01:27;;;;;;;12.45;8.10;;;6.50;69.60;;;;;;5081916;28;20675;-76
2022/12/01 08:04:11;;;;;;;14.02;8.18;;;6.50;69.60;;;;;;5081174;28;20116;-83
2022/12/01 08:06:56;;;;;;;11.68;6.93;;;6.50;69.60;;;;;;5075452;28;20510;-83
2022/12/01 08:09:41;;;;;;;12.73;8.30;;;6.50;69.60;;;;;;5081176;28;20292;-77
2022/12/01 08:12:25;;;;;;;10.88;7.78;;;6.50;69.60;;;;;;5081586;28;20101;-76
2022/12/01 08:15:10;;;;;;;11.15;7.93;;;6.50;69.60;;;;;;5079167;28;20131;-84
2022/12/01 08:17:54;;;;;;;12.50;8.15;;;6.50;69.50;;;;;;5072971;28;20118;-81
2022/12/01 08:20:39;;;;;;;12.73;7.78;;;6.50;69.50;;;;;;5081830;28;20043;-80
2022/12/01 08:23:23;;;;;;;11.63;7.90;;;6.50;69.40;;;;;;5085427;28;20046;-80
2022/12/01 08:26:17;;;;;;;12.45;8.07;;;6.50;69.40;;;;;;5075443;28;20051;-80
2022/12/01 08:29:01;;;;;;;14.48;8.48;;;6.60;69.60;;;;;;5085114;28;20101;-82
2022/12/01 08:31:46;;;;;;;11.85;8.00;;;6.60;69.50;;;;;;5080923;28;20499;-80
2022/12/01 08:34:36;;;;;;;13.55;7.95;;;6.60;69.50;;;;;;5085020;28;20067;-78
2022/12/01 08:37:20;;;;;;;12.30;7.70;;;6.60;69.40;;;;;;5083535;28;20075;-78
2022/12/01 08:40:06;;;;;;;11.05;7.70;;;6.60;69.40;;;;;;5079022;28;20028;-77
2022/12/01 08:42:51;;;;;;;10.77;7.45;;;6.60;69.30;;;;;;5092384;28;20046;-80
2022/12/01 08:45:36;;;;;;;10.75;7.53;;;6.60;69.80;;;;;;5063911;28;20039;-80
2022/12/01 08:48:21;;;;;;;10.48;7.47;;;6.70;69.50;;;;;;5082960;28;20059;-78
2022/12/01 08:51:08;;;;;;;14.35;8.27;;;6.60;69.30;;;;;;5084100;28;20047;-78
2022/12/01 08:53:54;;;;;;;10.82;7.80;;;6.70;69.40;;;;;;5068325;28;20048;-80
2022/12/01 08:56:42;;;;;;;11.02;8.18;;;6.70;69.40;;;;;;5084642;28;20391;-80
2022/12/01 08:59:26;;;;;;;12.02;8.23;;;6.70;69.30;;;;;;5081523;28;20054;-82
2022/12/01 09:02:16;;;;;;;10.75;7.18;;;6.70;69.80;;;;;;5083254;28;20039;-82
2022/12/01 09:05:01;;;;;;;11.55;7.43;;;6.80;69.40;;;;;;5081004;28;20071;-81
2022/12/01 09:08:29;;;;;;;11.43;7.47;;;6.80;69.30;;;;;;5074747;28;20133;-83
2022/12/01 09:10:51;;;;;;;13.45;8.93;;;6.80;69.30;;;;;;5083813;28;20042;-83
2022/12/01 09:13:38;;;;;;;10.32;7.47;;;6.80;69.20;;;;;;5084203;28;20101;-76
2022/12/01 09:16:22;;;;;;;11.88;7.95;;;6.90;69.30;;;;;;5076840;28;20031;-78
2022/12/01 09:19:07;;;;;;;12.88;7.72;;;6.90;69.20;;;;;;5083168;28;20645;-82
2022/12/01 09:21:52;;;;;;;11.90;7.93;;;6.90;69.20;;;;;;5083930;28;20043;-79
2022/12/01 09:24:37;;;;;;;11.27;7.25;;;7.00;69.30;;;;;;5066693;28;20387;-83
2022/12/01 09:27:22;;;;;;;12.18;7.30;;;7.00;69.20;;;;;;5083444;28;20096;-80
2022/12/01 09:30:07;;;;;;;10.48;6.97;;;7.00;69.20;;;;;;5082816;28;20048;-80
2022/12/01 09:32:52;;;;;;;10.18;7.60;;;7.10;69.30;;;;;;5075810;28;20074;-79
2022/12/01 09:35:37;;;;;;;9.45;6.63;;;7.10;69.20;;;;;;5080811;28;20162;-79
2022/12/01 09:38:22;;;;;;;12.77;8.10;;;7.20;69.30;;;;;;5067068;28;20043;-79
2022/12/01 09:41:26;;;;;;;11.75;7.63;;;7.20;69.20;;;;;;5075340;28;20086;-76
2022/12/01 09:44:25;;;;;;;12.90;8.07;;;7.30;69.30;;;;;;5075329;28;20593;-78
2022/12/01 09:47:29;;;;;;;12.20;8.00;;;7.30;69.20;;;;;;5080401;28;20168;-79
2022/12/01 09:50:22;;;;;;;12.15;8.15;;;7.30;69.10;;;;;;5083677;28;20302;-80
2022/12/01 09:53:07;;;;;;;;;;;7.40;69.20;;;;;;5083148;28;20563;-80
2022/12/01 09:55:52;;;;;;;12.20;7.75;;;7.40;69.10;;;;;;5079955;28;20261;-79
2022/12/01 09:58:37;;;;;;;13.50;8.48;;;7.50;69.10;;;;;;5082365;28;20043;-79
2022/12/01 10:01:40;;;;;;;12.38;8.02;;;7.50;69.10;;;;;;5079310;28;20030;-81
2022/12/01 10:04:47;;;;;;;11.80;8.45;;;7.60;69.20;;;;;;5080379;28;20108;-76
2022/12/01 10:08:11;;;;;;;13.27;8.88;;;7.60;69.10;;;;;;5062559;28;20106;-78
2022/12/01 10:11:19;;;;;;;;;;;7.70;69.20;;;;;;5043042;28;20071;-75
2022/12/01 10:14:05;;;;;;;13.07;9.15;;;7.70;69.10;;;;;;5065811;28;20283;-77
2022/12/01 10:17:17;;;;;;;15.38;10.30;;;7.80;69.10;;;;;;5082872;28;20043;-77
2022/12/01 10:20:28;;;;;;;12.15;8.73;;;7.80;69.00;;;;;;5074050;28;20113;-81
2022/12/01 10:23:40;;;;;;;12.40;8.68;;;7.90;69.10;;;;;;5074685;28;20128;-80
2022/12/01 10:26:53;;;;;;;12.95;9.13;;;7.90;69.10;;;;;;5081665;28;20650;-79
2022/12/01 10:30:15;;;;;;;16.02;9.15;;;8.00;69.10;;;;;;5077667;28;20047;-79
2022/12/01 10:33:11;;;;;;;14.93;9.55;;;8.00;69.00;;;;;;5071174;28;20621;-80
2022/12/01 10:35:57;;;;;;;13.30;8.70;;;8.10;69.70;;;;;;5072178;28;20039;-81
2022/12/01 10:38:41;;;;;;;13.02;9.32;;;8.10;69.10;;;;;;5086625;28;20080;-79
2022/12/01 10:41:29;;;;;;;13.82;9.68;;;8.20;69.20;;;;;;5081523;28;20150;-79
2022/12/01 10:44:15;;;;;;;13.13;8.65;;;8.20;69.10;;;;;;5082782;28;20080;-82
2022/12/01 10:46:59;;;;;;;14.85;9.35;;;8.20;69.10;;;;;;5078624;28;20120;-80
2022/12/01 10:49:44;;;;;;;13.35;9.02;;;8.30;69.20;;;;;;5082213;28;20354;-80
2022/12/01 10:52:34;;;;;;;15.25;9.80;;;8.30;69.10;;;;;;5082414;28;20565;-76
2022/12/01 10:55:21;;;;;;;15.82;10.85;;;8.30;69.60;;;;;;5082899;28;20121;-78
2022/12/01 10:58:14;;;;;;;14.35;9.23;;;8.40;69.10;;;;;;5081340;28;20043;-82
2022/12/01 11:01:03;;;;;;;11.60;9.65;;;8.40;69.00;;;;;;5082827;28;20093;-81
2022/12/01 11:03:51;;;;;;;14.73;10.05;;;8.40;68.90;;;;;;5075484;28;20043;-79
2022/12/01 11:06:36;;;;;;;16.48;10.35;;;8.50;69.10;;;;;;5069837;28;20042;-79
2022/12/01 11:09:26;;;;;;;14.05;9.48;;;8.60;69.10;;;;;;5078257;28;20043;-80
2022/12/01 11:12:15;;;;;;;16.70;9.88;;;8.60;69.00;;;;;;5083251;28;20039;-79
2022/12/01 11:15:01;;;;;;;15.02;10.50;;;8.70;69.10;;;;;;5083661;28;20504;-79
2022/12/01 11:17:46;;;;;;;14.25;9.15;;;8.70;68.90;;;;;;5083425;28;20086;-79
2022/12/01 11:20:39;;;;;;;12.55;8.80;;;8.80;69.00;;;;;;5080879;28;20046;-79
2022/12/01 11:23:27;;;;;;;15.40;9.88;;;8.80;68.90;;;;;;5086061;28;20050;-78
2022/12/01 11:26:14;;;;;;;14.05;10.25;;;8.90;69.00;;;;;;5073741;28;20474;-78
2022/12/01 11:29:28;;;;;;;14.18;9.38;;;8.90;68.90;;;;;;5086645;28;20551;-80
2022/12/01 11:32:38;;;;;;;16.17;9.95;;;9.00;68.90;;;;;;5070819;28;20096;-79
2022/12/01 11:35:26;;;;;;;15.93;10.40;;;9.00;68.80;;;;;;5073991;28;20250;-77
2022/12/01 11:38:20;;;;;;;18.23;10.00;;;9.10;68.90;;;;;;5088603;28;20634;-78
2022/12/01 11:41:05;;;;;;;17.10;11.52;;;9.10;68.70;;;;;;5068879;28;20134;-78
2022/12/01 11:43:49;;;;;;;16.23;11.63;;;9.20;68.80;;;;;;5074737;28;20122;-83
2022/12/01 11:46:37;;;;;;;13.32;9.50;;;9.20;68.70;;;;;;5081994;28;20039;-83
2022/12/01 11:49:27;;;;;;;16.08;10.48;;;9.20;68.70;;;;;;5085143;28;20043;-76
2022/12/01 11:52:27;;;;;;;15.70;10.40;;;9.30;68.70;;;;;;5074929;28;20051;-78
2022/12/01 11:55:12;;;;;;;15.73;10.10;;;9.30;68.70;;;;;;5074653;28;20502;-78
2022/12/01 11:58:02;;;;;;;17.40;11.52;;;9.40;68.80;;;;;;5081528;28;20089;-79
2022/12/01 12:00:54;;;;;;;15.88;10.73;;;9.40;68.70;;;;;;5079739;28;20509;-84
2022/12/01 12:03:58;;;;;;;15.45;9.57;;;9.40;68.60;;;;;;5085737;28;20046;-85
2022/12/01 12:07:08;;;;;;;14.98;10.57;;;9.50;68.90;;;;;;5078023;28;20063;-85
2022/12/01 12:10:05;;;;;;;14.43;10.13;;;9.60;69.10;;;;;;5083138;28;20423;-84
2022/12/01 12:13:14;;;;;;;18.35;11.52;;;9.70;69.00;;;;;;5081676;28;20087;-84
2022/12/01 12:16:17;;;;;;;15.27;10.15;;;9.70;68.80;;;;;;5081695;28;20132;-91
2022/12/01 12:19:36;;;;;;;17.13;10.38;;;9.70;68.80;;;;;;5086319;28;20125;-92
2022/12/01 12:22:49;;;;;;;16.40;11.13;;;9.80;68.90;;;;;;5074902;28;20451;-83
2022/12/01 12:25:55;;;;;;;16.00;10.93;;;9.80;68.80;;;;;;5084971;28;20139;-88
2022/12/01 12:28:59;;;;;;;16.25;10.07;;;9.80;68.80;;;;;;5084009;28;20399;-83
2022/12/01 12:31:46;;;;;;;16.63;11.13;;;9.90;68.90;;;;;;5084724;28;20105;-78
2022/12/01 12:34:47;;;;;;;15.20;10.10;;;9.90;68.80;;;;;;5086414;28;20047;-80
2022/12/01 12:38:02;;;;;;;15.65;11.15;;;9.90;68.80;;;;;;5074842;28;20082;-78
2022/12/01 12:41:20;;;;;;;17.60;10.90;;;9.90;68.70;;;;;;5075432;28;20065;-88
2022/12/01 12:44:34;;;;;;;15.85;10.85;;;9.90;68.60;;;;;;5084890;28;20062;-84
2022/12/01 12:47:34;;;;;;;15.02;9.93;;;10.00;68.70;;;;;;5077811;28;20513;-79
2022/12/01 12:50:57;;;;;;;14.55;10.82;;;10.00;68.60;;;;;;5078048;28;20510;-78
2022/12/01 12:54:09;;;;;;;15.07;10.35;;;10.00;68.60;;;;;;5068130;28;20109;-79
2022/12/01 12:57:17;;;;;;;19.38;10.80;;;10.00;68.50;;;;;;5078847;28;20117;-79
2022/12/01 13:00:17;;;;;;;15.07;9.88;;;10.10;68.70;;;;;;5080632;28;20047;-77
2022/12/01 13:03:18;;;;;;;17.15;10.95;;;10.10;68.50;;;;;;5084971;28;20039;-80
2022/12/01 13:06:10;;;;;;;17.73;11.13;;;10.20;68.60;;;;;;5083894;28;20058;-79
2022/12/01 13:09:01;;;;;;;18.25;11.07;;;10.20;68.50;;;;;;5078379;28;20075;-80
2022/12/01 13:11:56;;;;;;;16.35;10.77;;;10.20;68.40;;;;;;5075806;28;20054;-78
2022/12/01 13:14:48;;;;;;;15.90;11.13;;;10.20;68.40;;;;;;5084937;28;20117;-78
2022/12/01 13:17:37;;;;;;;15.82;9.88;;;10.20;68.30;;;;;;5075238;28;20085;-89
2022/12/01 13:20:26;;;;;;;16.52;10.98;;;10.20;68.30;;;;;;5081043;28;20042;-80
2022/12/01 13:23:16;;;;;;;16.63;10.70;;;10.20;68.30;;;;;;5082987;28;20363;-77
2022/12/01 13:26:07;;;;;;;14.25;10.18;;;10.20;68.30;;;;;;5072352;28;20450;-77
2022/12/01 13:28:56;;;;;;;15.07;10.65;;;10.10;68.10;;;;;;5079914;28;20134;-75
2022/12/01 13:31:44;;;;;;;16.20;11.02;;;10.10;68.10;;;;;;5077313;28;20055;-80
2022/12/01 13:34:41;;;;;;;15.02;10.85;;;10.10;68.10;;;;;;5083415;28;20693;-81
2022/12/01 13:37:29;;;;;;;14.13;10.45;;;10.10;68.10;;;;;;5083378;28;20055;-80
2022/12/01 13:40:27;;;;;;;17.33;11.25;;;10.10;68.10;;;;;;5076456;28;20032;-82
2022/12/01 13:43:22;;;;;;;14.73;10.32;;;10.10;68.10;;;;;;5059943;28;20102;-81
2022/12/01 13:46:22;;;;;;;14.30;10.15;;;10.10;68.10;;;;;;5079578;28;20063;-85
2022/12/01 13:49:35;;;;;;;13.95;10.23;;;10.10;68.00;;;;;;5074742;28;20475;-81
2022/12/01 13:52:20;;;;;;;14.40;10.00;;;10.10;68.00;;;;;;5074770;28;20272;-80
2022/12/01 13:55:10;;;;;;;16.65;11.98;;;10.20;68.20;;;;;;5070569;28;20055;-80
2022/12/01 13:57:58;;;;;;;14.43;10.13;;;10.20;68.10;;;;;;5078456;28;20128;-81
2022/12/01 14:00:42;;;;;;;18.92;10.80;;;10.20;68.00;;;;;;5083156;28;20080;-81
2022/12/01 14:03:36;;;;;;;16.63;11.00;;;10.20;68.00;;;;;;5083912;28;20071;-81
2022/12/01 14:06:24;;;;;;;13.48;9.68;;;10.20;67.90;;;;;;5089672;28;20054;-85
2022/12/01 14:09:25;;;;;;;14.85;9.90;;;10.20;67.90;;;;;;5091380;28;20109;-83
2022/12/01 14:12:09;;;;;;;18.50;11.50;;;10.20;67.90;;;;;;5093985;28;20071;-80
2022/12/01 14:15:21;;;;;;;16.40;11.05;;;10.20;67.90;;;;;;5092004;28;20427;-80
2022/12/01 14:18:11;;;;;;;13.07;9.73;;;10.20;67.80;;;;;;5085933;28;20039;-82
2022/12/01 14:20:56;;;;;;;15.52;10.18;;;10.20;67.80;;;;;;5101063;28;20114;-79
2022/12/01 14:24:03;;;;;;;15.90;10.90;;;10.20;67.80;;;;;;5104329;28;20087;-79
2022/12/01 14:26:50;;;;;;;16.25;10.45;;;10.20;67.80;;;;;;5094822;28;20051;-81
2022/12/01 14:29:41;;;;;;;12.63;9.82;;;10.10;67.70;;;;;;5083790;28;20105;-81
2022/12/01 14:32:26;;;;;;;15.48;10.50;;;10.10;67.70;;;;;;5070691;28;20070;-78
2022/12/01 14:35:12;;;;;;;13.82;10.10;;;10.10;67.70;;;;;;5085151;28;20097;-78
2022/12/01 14:37:56;;;;;;;14.82;10.43;;;10.10;67.60;;;;;;5080681;28;20050;-79